Station Historical Data
Daily Summary for June 24, 2012 Units:  Both    English   Metric
« Previous Day
Next Day »
Daily Weekly Monthly Yearly Custom
  High: Low: Average:
Temperature: 96.7 °F /  35.9 °C 69.0 °F /  20.6 °C 83.1 °F /  28.4 °C
Dew Point: 68.9 °F /  20.5 °C 53.8 °F /  12.1 °C 59.6 °F /  15.3 °C
Humidity: 68% 25% 48%
Wind Speed: 9.0mph /  14.5km/h - 2.5mph /  4km/h
Wind Gust: 11.0mph /  17.7km/h - -
Wind- - SE
Pressure: 29.91 in /  1012.8 hPa 29.78 in /  1008.4 hPa -
Precipitation: 0.00 in /  0 mm    
Historical Graphs
 
 
Tabular Data for June 24, 2012
Time Temperature Dew Point Pressure Wind Wind Speed Wind Gust Humidity Rainfall Rate (Hourly) Conditions
00:00 76.9 °F /  24.9 °C 58.0 °F /  14.4 °C 29.89in /  1012.1hPa NNE 2.0mph /  3.2km/h 4.0mph /  6.4km/h 52% 0.00in /  0mm
00:05 77.0 °F /  25 °C 58.0 °F /  14.4 °C 29.89in /  1012.1hPa NNE 2.0mph /  3.2km/h 3.0mph /  4.8km/h 52% 0.00in /  0mm
00:10 76.7 °F /  24.8 °C 58.3 °F /  14.6 °C 29.89in /  1012.1hPa NNE 1.0mph /  1.6km/h 2.0mph /  3.2km/h 53% 0.00in /  0mm
00:15 75.9 °F /  24.4 °C 58.6 °F /  14.8 °C 29.89in /  1012.1hPa North 1.0mph /  1.6km/h 2.0mph /  3.2km/h 55% 0.00in /  0mm
00:20 75.2 °F /  24 °C 58.4 °F /  14.7 °C 29.89in /  1012.1hPa North 2.0mph /  3.2km/h 2.0mph /  3.2km/h 56% 0.00in /  0mm
00:25 74.9 °F /  23.8 °C 58.7 °F /  14.8 °C 29.89in /  1012.1hPa North 1.0mph /  1.6km/h 2.0mph /  3.2km/h 57% 0.00in /  0mm
00:30 74.6 °F /  23.7 °C 58.9 °F /  14.9 °C 29.89in /  1012.1hPa NNW 2.0mph /  3.2km/h 3.0mph /  4.8km/h 58% 0.00in /  0mm
00:35 74.2 °F /  23.4 °C 58.5 °F /  14.7 °C 29.89in /  1012.1hPa North 3.0mph /  4.8km/h 3.0mph /  4.8km/h 58% 0.00in /  0mm
00:40 74.4 °F /  23.6 °C 58.7 °F /  14.8 °C 29.89in /  1012.1hPa North 2.0mph /  3.2km/h 4.0mph /  6.4km/h 58% 0.00in /  0mm
00:45 74.5 °F /  23.6 °C 58.8 °F /  14.9 °C 29.89in /  1012.1hPa North 2.0mph /  3.2km/h 3.0mph /  4.8km/h 58% 0.00in /  0mm
00:50 74.7 °F /  23.7 °C 59.0 °F /  15 °C 29.90in /  1012.4hPa North 3.0mph /  4.8km/h 3.0mph /  4.8km/h 58% 0.00in /  0mm
00:55 74.7 °F /  23.7 °C 59.0 °F /  15 °C 29.90in /  1012.4hPa North 2.0mph /  3.2km/h 3.0mph /  4.8km/h 58% 0.00in /  0mm
01:00 74.6 °F /  23.7 °C 58.9 °F /  14.9 °C 29.90in /  1012.4hPa North 2.0mph /  3.2km/h 3.0mph /  4.8km/h 58% 0.00in /  0mm
01:05 74.5 °F /  23.6 °C 59.2 °F /  15.1 °C 29.90in /  1012.4hPa NNE 1.0mph /  1.6km/h 2.0mph /  3.2km/h 59% 0.00in /  0mm
01:10 74.2 °F /  23.4 °C 59.0 °F /  15 °C 29.90in /  1012.4hPa North 2.0mph /  3.2km/h 3.0mph /  4.8km/h 59% 0.00in /  0mm
01:15 74.1 °F /  23.4 °C 59.3 °F /  15.2 °C 29.90in /  1012.4hPa North 2.0mph /  3.2km/h 3.0mph /  4.8km/h 60% 0.00in /  0mm
01:20 73.9 °F /  23.3 °C 59.2 °F /  15.1 °C 29.90in /  1012.4hPa North 1.0mph /  1.6km/h 3.0mph /  4.8km/h 60% 0.00in /  0mm
01:25 74.0 °F /  23.3 °C 59.2 °F /  15.1 °C 29.90in /  1012.4hPa ENE 2.0mph /  3.2km/h 3.0mph /  4.8km/h 60% 0.00in /  0mm
01:30 74.2 °F /  23.4 °C 59.0 °F /  15 °C 29.90in /  1012.4hPa NNE 1.0mph /  1.6km/h 4.0mph /  6.4km/h 59% 0.00in /  0mm
01:35 74.3 °F /  23.5 °C 59.1 °F /  15.1 °C 29.90in /  1012.4hPa NE 1.0mph /  1.6km/h 2.0mph /  3.2km/h 59% 0.00in /  0mm
01:40 74.2 °F /  23.4 °C 59.0 °F /  15 °C 29.89in /  1012.1hPa NNE 1.0mph /  1.6km/h 3.0mph /  4.8km/h 59% 0.00in /  0mm
01:45 74.0 °F /  23.3 °C 59.2 °F /  15.1 °C 29.90in /  1012.4hPa NNE 1.0mph /  1.6km/h 2.0mph /  3.2km/h 60% 0.00in /  0mm
01:50 74.0 °F /  23.3 °C 58.8 °F /  14.9 °C 29.89in /  1012.1hPa NNE 2.0mph /  3.2km/h 4.0mph /  6.4km/h 59% 0.00in /  0mm
01:55 74.2 °F /  23.4 °C 59.0 °F /  15 °C 29.90in /  1012.4hPa NE 1.0mph /  1.6km/h 3.0mph /  4.8km/h 59% 0.00in /  0mm
02:00 74.2 °F /  23.4 °C 59.0 °F /  15 °C 29.90in /  1012.4hPa NE 2.0mph /  3.2km/h 3.0mph /  4.8km/h 59% 0.00in /  0mm
02:05 74.0 °F /  23.3 °C 58.8 °F /  14.9 °C 29.89in /  1012.1hPa NNE 3.0mph /  4.8km/h 3.0mph /  4.8km/h 59% 0.00in /  0mm
02:10 74.0 °F /  23.3 °C 58.8 °F /  14.9 °C 29.90in /  1012.4hPa NE 2.0mph /  3.2km/h 3.0mph /  4.8km/h 59% 0.00in /  0mm
02:16 74.0 °F /  23.3 °C 58.8 °F /  14.9 °C 29.89in /  1012.1hPa NNE 1.0mph /  1.6km/h 3.0mph /  4.8km/h 59% 0.00in /  0mm
02:21 73.9 °F /  23.3 °C 58.7 °F /  14.8 °C 29.89in /  1012.1hPa NE 2.0mph /  3.2km/h 2.0mph /  3.2km/h 59% 0.00in /  0mm
02:26 73.7 °F /  23.2 °C 58.5 °F /  14.7 °C 29.89in /  1012.1hPa NNE 2.0mph /  3.2km/h 3.0mph /  4.8km/h 59% 0.00in /  0mm
02:31 73.7 °F /  23.2 °C 58.5 °F /  14.7 °C 29.89in /  1012.1hPa NNE 3.0mph /  4.8km/h 3.0mph /  4.8km/h 59% 0.00in /  0mm
02:36 73.7 °F /  23.2 °C 58.5 °F /  14.7 °C 29.89in /  1012.1hPa NNE 2.0mph /  3.2km/h 2.0mph /  3.2km/h 59% 0.00in /  0mm
02:41 73.6 °F /  23.1 °C 58.4 °F /  14.7 °C 29.89in /  1012.1hPa NNE 2.0mph /  3.2km/h 3.0mph /  4.8km/h 59% 0.00in /  0mm
02:46 73.5 °F /  23.1 °C 58.3 °F /  14.6 °C 29.88in /  1011.7hPa North 2.0mph /  3.2km/h 3.0mph /  4.8km/h 59% 0.00in /  0mm
02:51 73.5 °F /  23.1 °C 58.3 °F /  14.6 °C 29.88in /  1011.7hPa NE 2.0mph /  3.2km/h 3.0mph /  4.8km/h 59% 0.00in /  0mm
02:56 73.5 °F /  23.1 °C 58.3 °F /  14.6 °C 29.89in /  1012.1hPa NNE 3.0mph /  4.8km/h 3.0mph /  4.8km/h 59% 0.00in /  0mm
03:01 73.5 °F /  23.1 °C 58.3 °F /  14.6 °C 29.88in /  1011.7hPa NE 2.0mph /  3.2km/h 4.0mph /  6.4km/h 59% 0.00in /  0mm
03:06 73.5 °F /  23.1 °C 58.3 °F /  14.6 °C 29.88in /  1011.7hPa NNE 1.0mph /  1.6km/h 4.0mph /  6.4km/h 59% 0.00in /  0mm
03:11 73.4 °F /  23 °C 58.2 °F /  14.6 °C 29.89in /  1012.1hPa North 3.0mph /  4.8km/h 4.0mph /  6.4km/h 59% 0.00in /  0mm
03:16 73.3 °F /  22.9 °C 58.1 °F /  14.5 °C 29.88in /  1011.7hPa NE 2.0mph /  3.2km/h 2.0mph /  3.2km/h 59% 0.00in /  0mm
03:21 73.2 °F /  22.9 °C 58.0 °F /  14.4 °C 29.88in /  1011.7hPa NNE 3.0mph /  4.8km/h 3.0mph /  4.8km/h 59% 0.00in /  0mm
03:26 73.2 °F /  22.9 °C 58.0 °F /  14.4 °C 29.88in /  1011.7hPa NE 1.0mph /  1.6km/h 3.0mph /  4.8km/h 59% 0.00in /  0mm
03:31 73.1 °F /  22.8 °C 57.9 °F /  14.4 °C 29.88in /  1011.7hPa NE 1.0mph /  1.6km/h 4.0mph /  6.4km/h 59% 0.00in /  0mm
03:36 73.1 °F /  22.8 °C 57.9 °F /  14.4 °C 29.89in /  1012.1hPa NNE 2.0mph /  3.2km/h 3.0mph /  4.8km/h 59% 0.00in /  0mm
03:41 73.0 °F /  22.8 °C 57.8 °F /  14.3 °C 29.89in /  1012.1hPa NNE 1.0mph /  1.6km/h 3.0mph /  4.8km/h 59% 0.00in /  0mm
03:46 73.0 °F /  22.8 °C 57.8 °F /  14.3 °C 29.88in /  1011.7hPa NNE 1.0mph /  1.6km/h 4.0mph /  6.4km/h 59% 0.00in /  0mm
03:51 73.0 °F /  22.8 °C 58.3 °F /  14.6 °C 29.88in /  1011.7hPa NNE 1.0mph /  1.6km/h 3.0mph /  4.8km/h 60% 0.00in /  0mm
03:56 72.8 °F /  22.7 °C 58.1 °F /  14.5 °C 29.88in /  1011.7hPa North 3.0mph /  4.8km/h 3.0mph /  4.8km/h 60% 0.00in /  0mm
04:01 72.6 °F /  22.6 °C 57.9 °F /  14.4 °C 29.88in /  1011.7hPa North 2.0mph /  3.2km/h 3.0mph /  4.8km/h 60% 0.00in /  0mm
04:06 72.3 °F /  22.4 °C 58.1 °F /  14.5 °C 29.88in /  1011.7hPa North 1.0mph /  1.6km/h 3.0mph /  4.8km/h 61% 0.00in /  0mm
04:11 72.0 °F /  22.2 °C 57.8 °F /  14.3 °C 29.88in /  1011.7hPa NNE 3.0mph /  4.8km/h 4.0mph /  6.4km/h 61% 0.00in /  0mm
04:16 71.9 °F /  22.2 °C 58.2 °F /  14.6 °C 29.88in /  1011.7hPa NNW 2.0mph /  3.2km/h 3.0mph /  4.8km/h 62% 0.00in /  0mm
04:21 71.8 °F /  22.1 °C 58.1 °F /  14.5 °C 29.88in /  1011.7hPa NE 2.0mph /  3.2km/h 3.0mph /  4.8km/h 62% 0.00in /  0mm
04:26 71.8 °F /  22.1 °C 58.1 °F /  14.5 °C 29.88in /  1011.7hPa NE 2.0mph /  3.2km/h 3.0mph /  4.8km/h 62% 0.00in /  0mm
04:31 71.9 °F /  22.2 °C 57.7 °F /  14.3 °C 29.88in /  1011.7hPa NE 3.0mph /  4.8km/h 3.0mph /  4.8km/h 61% 0.00in /  0mm
04:36 72.2 °F /  22.3 °C 58.0 °F /  14.4 °C 29.88in /  1011.7hPa NE 3.0mph /  4.8km/h 3.0mph /  4.8km/h 61% 0.00in /  0mm
04:41 72.0 °F /  22.2 °C 57.8 °F /  14.3 °C 29.88in /  1011.7hPa North 1.0mph /  1.6km/h 3.0mph /  4.8km/h 61% 0.00in /  0mm
04:46 71.8 °F /  22.1 °C 58.1 °F /  14.5 °C 29.88in /  1011.7hPa NNE 1.0mph /  1.6km/h 3.0mph /  4.8km/h 62% 0.00in /  0mm
04:51 71.7 °F /  22.1 °C 58.0 °F /  14.4 °C 29.88in /  1011.7hPa NE 1.0mph /  1.6km/h 2.0mph /  3.2km/h 62% 0.00in /  0mm
04:56 71.5 °F /  21.9 °C 57.8 °F /  14.3 °C 29.88in /  1011.7hPa NNE 2.0mph /  3.2km/h 2.0mph /  3.2km/h 62% 0.00in /  0mm
05:01 71.4 °F /  21.9 °C 58.2 °F /  14.6 °C 29.87in /  1011.4hPa NNE 1.0mph /  1.6km/h 3.0mph /  4.8km/h 63% 0.00in /  0mm
05:06 71.2 °F /  21.8 °C 58.0 °F /  14.4 °C 29.87in /  1011.4hPa NE 1.0mph /  1.6km/h 3.0mph /  4.8km/h 63% 0.00in /  0mm
05:11 71.2 °F /  21.8 °C 58.0 °F /  14.4 °C 29.87in /  1011.4hPa NE 2.0mph /  3.2km/h 3.0mph /  4.8km/h 63% 0.00in /  0mm
05:16 71.3 °F /  21.8 °C 58.1 °F /  14.5 °C 29.87in /  1011.4hPa North 2.0mph /  3.2km/h 3.0mph /  4.8km/h 63% 0.00in /  0mm
05:21 71.2 °F /  21.8 °C 58.0 °F /  14.4 °C 29.87in /  1011.4hPa NNE 2.0mph /  3.2km/h 3.0mph /  4.8km/h 63% 0.00in /  0mm
05:26 71.2 °F /  21.8 °C 58.0 °F /  14.4 °C 29.87in /  1011.4hPa NNE 1.0mph /  1.6km/h 3.0mph /  4.8km/h 63% 0.00in /  0mm
05:31 71.2 °F /  21.8 °C 58.0 °F /  14.4 °C 29.87in /  1011.4hPa NE 1.0mph /  1.6km/h 3.0mph /  4.8km/h 63% 0.00in /  0mm
05:36 71.2 °F /  21.8 °C 58.0 °F /  14.4 °C 29.87in /  1011.4hPa NNE 3.0mph /  4.8km/h 3.0mph /  4.8km/h 63% 0.00in /  0mm
05:41 71.1 °F /  21.7 °C 57.9 °F /  14.4 °C 29.87in /  1011.4hPa NNE 2.0mph /  3.2km/h 3.0mph /  4.8km/h 63% 0.00in /  0mm
05:46 70.9 °F /  21.6 °C 57.7 °F /  14.3 °C 29.87in /  1011.4hPa Calm   2.0mph /  3.2km/h 63% 0.00in /  0mm
05:51 70.6 °F /  21.4 °C 57.8 °F /  14.3 °C 29.87in /  1011.4hPa NNE 1.0mph /  1.6km/h 2.0mph /  3.2km/h 64% 0.00in /  0mm
05:57 70.3 °F /  21.3 °C 58.0 °F /  14.4 °C 29.87in /  1011.4hPa NNE 2.0mph /  3.2km/h 4.0mph /  6.4km/h 65% 0.00in /  0mm
06:02 70.1 °F /  21.2 °C 57.8 °F /  14.3 °C 29.87in /  1011.4hPa NE 2.0mph /  3.2km/h 3.0mph /  4.8km/h 65% 0.00in /  0mm
06:07 70.1 °F /  21.2 °C 57.8 °F /  14.3 °C 29.87in /  1011.4hPa NE 1.0mph /  1.6km/h 2.0mph /  3.2km/h 65% 0.00in /  0mm
06:12 70.1 °F /  21.2 °C 57.8 °F /  14.3 °C 29.87in /  1011.4hPa NE 1.0mph /  1.6km/h 2.0mph /  3.2km/h 65% 0.00in /  0mm
06:17 70.1 °F /  21.2 °C 57.8 °F /  14.3 °C 29.87in /  1011.4hPa North 2.0mph /  3.2km/h 2.0mph /  3.2km/h 65% 0.00in /  0mm
06:22 69.7 °F /  20.9 °C 57.8 °F /  14.3 °C 29.87in /  1011.4hPa Calm   2.0mph /  3.2km/h 66% 0.00in /  0mm
06:27 69.2 °F /  20.7 °C 57.8 °F /  14.3 °C 29.87in /  1011.4hPa Calm   2.0mph /  3.2km/h 67% 0.00in /  0mm
06:32 69.0 °F /  20.6 °C 57.6 °F /  14.2 °C 29.87in /  1011.4hPa NNE 1.0mph /  1.6km/h 3.0mph /  4.8km/h 67% 0.00in /  0mm
06:37 69.2 °F /  20.7 °C 57.8 °F /  14.3 °C 29.87in /  1011.4hPa NW 1.0mph /  1.6km/h 3.0mph /  4.8km/h 67% 0.00in /  0mm
06:42 69.2 °F /  20.7 °C 57.8 °F /  14.3 °C 29.87in /  1011.4hPa Calm   1.0mph /  1.6km/h 67% 0.00in /  0mm
06:47 69.0 °F /  20.6 °C 57.6 °F /  14.2 °C 29.87in /  1011.4hPa NNE 2.0mph /  3.2km/h 3.0mph /  4.8km/h 67% 0.00in /  0mm
06:52 69.2 °F /  20.7 °C 57.8 °F /  14.3 °C 29.88in /  1011.7hPa NNE 1.0mph /  1.6km/h 3.0mph /  4.8km/h 67% 0.00in /  0mm
06:57 69.3 °F /  20.7 °C 57.9 °F /  14.4 °C 29.88in /  1011.7hPa NNE 1.0mph /  1.6km/h 3.0mph /  4.8km/h 67% 0.00in /  0mm
07:02 69.5 °F /  20.8 °C 58.1 °F /  14.5 °C 29.88in /  1011.7hPa NNE 1.0mph /  1.6km/h 1.0mph /  1.6km/h 67% 0.00in /  0mm
07:07 69.8 °F /  21 °C 58.4 °F /  14.7 °C 29.88in /  1011.7hPa North 1.0mph /  1.6km/h 2.0mph /  3.2km/h 67% 0.00in /  0mm
07:12 69.6 °F /  20.9 °C 58.6 °F /  14.8 °C 29.88in /  1011.7hPa Calm   2.0mph /  3.2km/h 68% 0.00in /  0mm
07:17 69.8 °F /  21 °C 58.8 °F /  14.9 °C 29.88in /  1011.7hPa NW 1.0mph /  1.6km/h 1.0mph /  1.6km/h 68% 0.00in /  0mm
07:22 70.4 °F /  21.3 °C 58.9 °F /  14.9 °C 29.88in /  1011.7hPa NNW 1.0mph /  1.6km/h 2.0mph /  3.2km/h 67% 0.00in /  0mm
07:27 70.8 °F /  21.6 °C 58.9 °F /  14.9 °C 29.88in /  1011.7hPa ENE 1.0mph /  1.6km/h 1.0mph /  1.6km/h 66% 0.00in /  0mm
07:32 71.4 °F /  21.9 °C 59.5 °F /  15.3 °C 29.88in /  1011.7hPa Calm   2.0mph /  3.2km/h 66% 0.00in /  0mm
07:37 72.0 °F /  22.2 °C 59.6 °F /  15.3 °C 29.88in /  1011.7hPa NNW 1.0mph /  1.6km/h 2.0mph /  3.2km/h 65% 0.00in /  0mm
07:42 72.4 °F /  22.4 °C 60.0 °F /  15.6 °C 29.88in /  1011.7hPa NE 1.0mph /  1.6km/h 1.0mph /  1.6km/h 65% 0.00in /  0mm
07:47 72.8 °F /  22.7 °C 59.9 °F /  15.5 °C 29.88in /  1011.7hPa NNE 3.0mph /  4.8km/h 3.0mph /  4.8km/h 64% 0.00in /  0mm
07:52 73.1 °F /  22.8 °C 60.7 °F /  15.9 °C 29.88in /  1011.7hPa Calm   3.0mph /  4.8km/h 65% 0.00in /  0mm
07:57 73.6 °F /  23.1 °C 60.7 °F /  15.9 °C 29.89in /  1012.1hPa NNE 1.0mph /  1.6km/h 3.0mph /  4.8km/h 64% 0.00in /  0mm
08:02 73.8 °F /  23.2 °C 60.9 °F /  16.1 °C 29.89in /  1012.1hPa NNE 2.0mph /  3.2km/h 3.0mph /  4.8km/h 64% 0.00in /  0mm
08:07 73.9 °F /  23.3 °C 61.0 °F /  16.1 °C 29.89in /  1012.1hPa North 2.0mph /  3.2km/h 4.0mph /  6.4km/h 64% 0.00in /  0mm
08:12 74.0 °F /  23.3 °C 61.1 °F /  16.2 °C 29.89in /  1012.1hPa NE 4.0mph /  6.4km/h 5.0mph /  8km/h 64% 0.00in /  0mm
08:17 74.0 °F /  23.3 °C 61.1 °F /  16.2 °C 29.89in /  1012.1hPa NE 2.0mph /  3.2km/h 6.0mph /  9.7km/h 64% 0.00in /  0mm
08:22 74.4 °F /  23.6 °C 61.4 °F /  16.3 °C 29.89in /  1012.1hPa NE 2.0mph /  3.2km/h 4.0mph /  6.4km/h 64% 0.00in /  0mm
08:27 74.8 °F /  23.8 °C 61.8 °F /  16.6 °C 29.90in /  1012.4hPa North 2.0mph /  3.2km/h 4.0mph /  6.4km/h 64% 0.00in /  0mm
08:32 75.1 °F /  23.9 °C 62.1 °F /  16.7 °C 29.89in /  1012.1hPa NE 3.0mph /  4.8km/h 5.0mph /  8km/h 64% 0.00in /  0mm
08:37 75.5 °F /  24.2 °C 62.5 °F /  16.9 °C 29.90in /  1012.4hPa NE 3.0mph /  4.8km/h 5.0mph /  8km/h 64% 0.00in /  0mm
08:42 75.9 °F /  24.4 °C 63.3 °F /  17.4 °C 29.90in /  1012.4hPa East 4.0mph /  6.4km/h 4.0mph /  6.4km/h 65% 0.00in /  0mm
08:47 76.3 °F /  24.6 °C 62.3 °F /  16.8 °C 29.90in /  1012.4hPa East 6.0mph /  9.7km/h 6.0mph /  9.7km/h 62% 0.00in /  0mm
08:52 76.5 °F /  24.7 °C 62.5 °F /  16.9 °C 29.90in /  1012.4hPa ESE 5.0mph /  8km/h 6.0mph /  9.7km/h 62% 0.00in /  0mm
08:57 76.6 °F /  24.8 °C 63.1 °F /  17.3 °C 29.91in /  1012.8hPa ESE 7.0mph /  11.3km/h 7.0mph /  11.3km/h 63% 0.00in /  0mm
09:02 76.7 °F /  24.8 °C 63.6 °F /  17.6 °C 29.90in /  1012.4hPa SE 3.0mph /  4.8km/h 5.0mph /  8km/h 64% 0.00in /  0mm
09:07 76.9 °F /  24.9 °C 62.4 °F /  16.9 °C 29.90in /  1012.4hPa ESE 1.0mph /  1.6km/h 5.0mph /  8km/h 61% 0.00in /  0mm
09:12 77.2 °F /  25.1 °C 62.7 °F /  17.1 °C 29.90in /  1012.4hPa ENE 3.0mph /  4.8km/h 4.0mph /  6.4km/h 61% 0.00in /  0mm
09:17 77.6 °F /  25.3 °C 63.1 °F /  17.3 °C 29.90in /  1012.4hPa NE 4.0mph /  6.4km/h 4.0mph /  6.4km/h 61% 0.00in /  0mm
09:22 77.9 °F /  25.5 °C 63.4 °F /  17.4 °C 29.90in /  1012.4hPa NE 2.0mph /  3.2km/h 6.0mph /  9.7km/h 61% 0.00in /  0mm
09:27 78.3 °F /  25.7 °C 63.3 °F /  17.4 °C 29.90in /  1012.4hPa ENE 3.0mph /  4.8km/h 5.0mph /  8km/h 60% 0.00in /  0mm
09:32 78.8 °F /  26 °C 63.8 °F /  17.7 °C 29.90in /  1012.4hPa NE 5.0mph /  8km/h 5.0mph /  8km/h 60% 0.00in /  0mm
09:37 79.4 °F /  26.3 °C 64.3 °F /  17.9 °C 29.90in /  1012.4hPa ENE 1.0mph /  1.6km/h 3.0mph /  4.8km/h 60% 0.00in /  0mm
09:42 79.8 °F /  26.6 °C 64.7 °F /  18.2 °C 29.90in /  1012.4hPa NNE 4.0mph /  6.4km/h 4.0mph /  6.4km/h 60% 0.00in /  0mm
09:47 80.1 °F /  26.7 °C 64.0 °F /  17.8 °C 29.90in /  1012.4hPa Calm   3.0mph /  4.8km/h 58% 0.00in /  0mm
09:52 80.5 °F /  26.9 °C 64.4 °F /  18 °C 29.90in /  1012.4hPa NE 2.0mph /  3.2km/h 5.0mph /  8km/h 58% 0.00in /  0mm
09:57 81.0 °F /  27.2 °C 64.8 °F /  18.2 °C 29.91in /  1012.8hPa NE 2.0mph /  3.2km/h 5.0mph /  8km/h 58% 0.00in /  0mm
10:02 81.1 °F /  27.3 °C 65.4 °F /  18.6 °C 29.91in /  1012.8hPa NE 4.0mph /  6.4km/h 4.0mph /  6.4km/h 59% 0.00in /  0mm
10:08 81.5 °F /  27.5 °C 65.3 °F /  18.5 °C 29.91in /  1012.8hPa East 2.0mph /  3.2km/h 4.0mph /  6.4km/h 58% 0.00in /  0mm
10:13 82.1 °F /  27.8 °C 64.9 °F /  18.3 °C 29.90in /  1012.4hPa East 1.0mph /  1.6km/h 5.0mph /  8km/h 56% 0.00in /  0mm
10:18 82.8 °F /  28.2 °C 65.5 °F /  18.6 °C 29.90in /  1012.4hPa ENE 2.0mph /  3.2km/h 4.0mph /  6.4km/h 56% 0.00in /  0mm
10:23 83.1 °F /  28.4 °C 67.3 °F /  19.6 °C 29.91in /  1012.8hPa NE 1.0mph /  1.6km/h 5.0mph /  8km/h 59% 0.00in /  0mm
10:28 83.2 °F /  28.4 °C 64.8 °F /  18.2 °C 29.91in /  1012.8hPa ENE 1.0mph /  1.6km/h 4.0mph /  6.4km/h 54% 0.00in /  0mm
10:33 84.1 °F /  28.9 °C 67.7 °F /  19.8 °C 29.91in /  1012.8hPa NE 3.0mph /  4.8km/h 4.0mph /  6.4km/h 58% 0.00in /  0mm
10:38 84.7 °F /  29.3 °C 67.3 °F /  19.6 °C 29.91in /  1012.8hPa NNE 2.0mph /  3.2km/h 4.0mph /  6.4km/h 56% 0.00in /  0mm
10:43 84.9 °F /  29.4 °C 68.5 °F /  20.3 °C 29.91in /  1012.8hPa North 2.0mph /  3.2km/h 3.0mph /  4.8km/h 58% 0.00in /  0mm
10:48 85.2 °F /  29.6 °C 66.7 °F /  19.3 °C 29.90in /  1012.4hPa SE 3.0mph /  4.8km/h 3.0mph /  4.8km/h 54% 0.00in /  0mm
10:53 85.6 °F /  29.8 °C 68.1 °F /  20.1 °C 29.90in /  1012.4hPa SE 3.0mph /  4.8km/h 4.0mph /  6.4km/h 56% 0.00in /  0mm
10:58 85.9 °F /  29.9 °C 66.8 °F /  19.3 °C 29.90in /  1012.4hPa North 2.0mph /  3.2km/h 3.0mph /  4.8km/h 53% 0.00in /  0mm
11:03 86.1 °F /  30.1 °C 66.4 °F /  19.1 °C 29.90in /  1012.4hPa SE 1.0mph /  1.6km/h 5.0mph /  8km/h 52% 0.00in /  0mm
11:08 86.5 °F /  30.3 °C 66.8 °F /  19.3 °C 29.90in /  1012.4hPa East 1.0mph /  1.6km/h 3.0mph /  4.8km/h 52% 0.00in /  0mm
11:13 87.0 °F /  30.6 °C 67.3 °F /  19.6 °C 29.90in /  1012.4hPa South 1.0mph /  1.6km/h 3.0mph /  4.8km/h 52% 0.00in /  0mm
11:18 87.3 °F /  30.7 °C 67.5 °F /  19.7 °C 29.90in /  1012.4hPa Calm   3.0mph /  4.8km/h 52% 0.00in /  0mm
11:23 87.6 °F /  30.9 °C 68.9 °F /  20.5 °C 29.90in /  1012.4hPa SE 2.0mph /  3.2km/h 4.0mph /  6.4km/h 54% 0.00in /  0mm
11:28 87.9 °F /  31.1 °C 66.9 °F /  19.4 °C 29.90in /  1012.4hPa Calm   3.0mph /  4.8km/h 50% 0.00in /  0mm
11:33 88.3 °F /  31.3 °C 67.3 °F /  19.6 °C 29.90in /  1012.4hPa ESE 2.0mph /  3.2km/h 4.0mph /  6.4km/h 50% 0.00in /  0mm
11:38 88.6 °F /  31.4 °C 67.6 °F /  19.8 °C 29.90in /  1012.4hPa SE 4.0mph /  6.4km/h 6.0mph /  9.7km/h 50% 0.00in /  0mm
11:43 88.7 °F /  31.5 °C 68.3 °F /  20.2 °C 29.90in /  1012.4hPa ESE 2.0mph /  3.2km/h 5.0mph /  8km/h 51% 0.00in /  0mm
11:48 89.0 °F /  31.7 °C 66.8 °F /  19.3 °C 29.90in /  1012.4hPa ESE 4.0mph /  6.4km/h 8.0mph /  12.9km/h 48% 0.00in /  0mm
11:53 88.9 °F /  31.6 °C 67.3 °F /  19.6 °C 29.89in /  1012.1hPa NE 1.0mph /  1.6km/h 6.0mph /  9.7km/h 49% 0.00in /  0mm
11:58 89.0 °F /  31.7 °C 66.2 °F /  19 °C 29.89in /  1012.1hPa NE 1.0mph /  1.6km/h 5.0mph /  8km/h 47% 0.00in /  0mm
12:03 89.5 °F /  31.9 °C 66.6 °F /  19.2 °C 29.89in /  1012.1hPa East 4.0mph /  6.4km/h 6.0mph /  9.7km/h 47% 0.00in /  0mm
12:08 89.5 °F /  31.9 °C 67.2 °F /  19.6 °C 29.89in /  1012.1hPa NNE 5.0mph /  8km/h 6.0mph /  9.7km/h 48% 0.00in /  0mm
12:13 89.4 °F /  31.9 °C 67.1 °F /  19.5 °C 29.89in /  1012.1hPa NW 3.0mph /  4.8km/h 5.0mph /  8km/h 48% 0.00in /  0mm
12:18 89.9 °F /  32.2 °C 63.1 °F /  17.3 °C 29.89in /  1012.1hPa North 1.0mph /  1.6km/h 7.0mph /  11.3km/h 41% 0.00in /  0mm
12:23 89.9 °F /  32.2 °C 63.1 °F /  17.3 °C 29.89in /  1012.1hPa NE 2.0mph /  3.2km/h 6.0mph /  9.7km/h 41% 0.00in /  0mm
12:28 90.2 °F /  32.3 °C 63.3 °F /  17.4 °C 29.89in /  1012.1hPa NNW 4.0mph /  6.4km/h 7.0mph /  11.3km/h 41% 0.00in /  0mm
12:33 90.6 °F /  32.6 °C 63.7 °F /  17.6 °C 29.89in /  1012.1hPa SW 1.0mph /  1.6km/h 8.0mph /  12.9km/h 41% 0.00in /  0mm
12:38 90.9 °F /  32.7 °C 61.8 °F /  16.6 °C 29.88in /  1011.7hPa NE 4.0mph /  6.4km/h 6.0mph /  9.7km/h 38% 0.00in /  0mm
12:43 91.1 °F /  32.8 °C 62.0 °F /  16.7 °C 29.88in /  1011.7hPa NE 4.0mph /  6.4km/h 7.0mph /  11.3km/h 38% 0.00in /  0mm
12:48 90.9 °F /  32.7 °C 61.8 °F /  16.6 °C 29.88in /  1011.7hPa NE 2.0mph /  3.2km/h 5.0mph /  8km/h 38% 0.00in /  0mm
12:53 91.5 °F /  33.1 °C 61.6 °F /  16.4 °C 29.88in /  1011.7hPa NNW 3.0mph /  4.8km/h 7.0mph /  11.3km/h 37% 0.00in /  0mm
12:58 91.2 °F /  32.9 °C 56.4 °F /  13.6 °C 29.89in /  1012.1hPa NNE 4.0mph /  6.4km/h 8.0mph /  12.9km/h 31% 0.00in /  0mm
13:03 91.3 °F /  32.9 °C 60.6 °F /  15.9 °C 29.88in /  1011.7hPa NE 3.0mph /  4.8km/h 6.0mph /  9.7km/h 36% 0.00in /  0mm
13:08 91.6 °F /  33.1 °C 59.3 °F /  15.2 °C 29.88in /  1011.7hPa NNE 4.0mph /  6.4km/h 7.0mph /  11.3km/h 34% 0.00in /  0mm
13:13 91.8 °F /  33.2 °C 57.8 °F /  14.3 °C 29.88in /  1011.7hPa NE 4.0mph /  6.4km/h 6.0mph /  9.7km/h 32% 0.00in /  0mm
13:18 91.6 °F /  33.1 °C 60.1 °F /  15.6 °C 29.88in /  1011.7hPa NE 4.0mph /  6.4km/h 7.0mph /  11.3km/h 35% 0.00in /  0mm
13:23 91.5 °F /  33.1 °C 58.4 °F /  14.7 °C 29.88in /  1011.7hPa ESE 5.0mph /  8km/h 5.0mph /  8km/h 33% 0.00in /  0mm
13:29 92.2 °F /  33.4 °C 61.4 °F /  16.3 °C 29.88in /  1011.7hPa NE 3.0mph /  4.8km/h 7.0mph /  11.3km/h 36% 0.00in /  0mm
13:34 92.0 °F /  33.3 °C 60.5 °F /  15.8 °C 29.88in /  1011.7hPa NNW 3.0mph /  4.8km/h 7.0mph /  11.3km/h 35% 0.00in /  0mm
13:39 92.2 °F /  33.4 °C 61.4 °F /  16.3 °C 29.88in /  1011.7hPa WNW 3.0mph /  4.8km/h 5.0mph /  8km/h 36% 0.00in /  0mm
13:44 92.3 °F /  33.5 °C 62.3 °F /  16.8 °C 29.87in /  1011.4hPa East 5.0mph /  8km/h 5.0mph /  8km/h 37% 0.00in /  0mm
13:49 92.5 °F /  33.6 °C 60.9 °F /  16.1 °C 29.87in /  1011.4hPa NW 2.0mph /  3.2km/h 5.0mph /  8km/h 35% 0.00in /  0mm
13:54 93.0 °F /  33.9 °C 59.7 °F /  15.4 °C 29.87in /  1011.4hPa ENE 5.0mph /  8km/h 7.0mph /  11.3km/h 33% 0.00in /  0mm
13:59 92.9 °F /  33.8 °C 56.0 °F /  13.3 °C 29.87in /  1011.4hPa North 4.0mph /  6.4km/h 7.0mph /  11.3km/h 29% 0.00in /  0mm
14:04 93.0 °F /  33.9 °C 56.1 °F /  13.4 °C 29.87in /  1011.4hPa ENE 5.0mph /  8km/h 6.0mph /  9.7km/h 29% 0.00in /  0mm
14:09 93.2 °F /  34 °C 58.1 °F /  14.5 °C 29.87in /  1011.4hPa NW 4.0mph /  6.4km/h 5.0mph /  8km/h 31% 0.00in /  0mm
14:14 93.4 °F /  34.1 °C 57.4 °F /  14.1 °C 29.86in /  1011.1hPa North 4.0mph /  6.4km/h 6.0mph /  9.7km/h 30% 0.00in /  0mm
14:19 93.6 °F /  34.2 °C 57.5 °F /  14.2 °C 29.86in /  1011.1hPa NE 3.0mph /  4.8km/h 6.0mph /  9.7km/h 30% 0.00in /  0mm
14:24 93.4 °F /  34.1 °C 56.4 °F /  13.6 °C 29.86in /  1011.1hPa NNE 5.0mph /  8km/h 7.0mph /  11.3km/h 29% 0.00in /  0mm
14:29 93.8 °F /  34.3 °C 56.8 °F /  13.8 °C 29.86in /  1011.1hPa NNE 3.0mph /  4.8km/h 5.0mph /  8km/h 29% 0.00in /  0mm
14:34 94.2 °F /  34.6 °C 59.0 °F /  15 °C 29.85in /  1010.7hPa NE 5.0mph /  8km/h 7.0mph /  11.3km/h 31% 0.00in /  0mm
14:39 93.9 °F /  34.4 °C 54.9 °F /  12.7 °C 29.85in /  1010.7hPa NNE 3.0mph /  4.8km/h 9.0mph /  14.5km/h 27% 0.00in /  0mm
14:44 94.1 °F /  34.5 °C 57.0 °F /  13.9 °C 29.85in /  1010.7hPa NNE 5.0mph /  8km/h 8.0mph /  12.9km/h 29% 0.00in /  0mm
14:49 94.0 °F /  34.4 °C 56.9 °F /  13.8 °C 29.85in /  1010.7hPa NE 5.0mph /  8km/h 10.0mph /  16.1km/h 29% 0.00in /  0mm
14:54 93.8 °F /  34.3 °C 55.8 °F /  13.2 °C 29.85in /  1010.7hPa NW 2.0mph /  3.2km/h 5.0mph /  8km/h 28% 0.00in /  0mm
14:59 93.9 °F /  34.4 °C 56.8 °F /  13.8 °C 29.85in /  1010.7hPa NW 9.0mph /  14.5km/h 9.0mph /  14.5km/h 29% 0.00in /  0mm
15:04 94.0 °F /  34.4 °C 56.0 °F /  13.3 °C 29.85in /  1010.7hPa WNW 1.0mph /  1.6km/h 7.0mph /  11.3km/h 28% 0.00in /  0mm
15:09 94.5 °F /  34.7 °C 56.4 °F /  13.6 °C 29.84in /  1010.4hPa North 3.0mph /  4.8km/h 5.0mph /  8km/h 28% 0.00in /  0mm
15:14 94.7 °F /  34.8 °C 57.5 °F /  14.2 °C 29.84in /  1010.4hPa NW 2.0mph /  3.2km/h 4.0mph /  6.4km/h 29% 0.00in /  0mm
15:19 94.7 °F /  34.8 °C 58.5 °F /  14.7 °C 29.84in /  1010.4hPa WNW 1.0mph /  1.6km/h 6.0mph /  9.7km/h 30% 0.00in /  0mm
15:24 94.9 °F /  34.9 °C 58.7 °F /  14.8 °C 29.84in /  1010.4hPa NE 7.0mph /  11.3km/h 9.0mph /  14.5km/h 30% 0.00in /  0mm
15:29 94.5 °F /  34.7 °C 58.3 °F /  14.6 °C 29.84in /  1010.4hPa NE 1.0mph /  1.6km/h 6.0mph /  9.7km/h 30% 0.00in /  0mm
15:34 94.5 °F /  34.7 °C 56.4 °F /  13.6 °C 29.84in /  1010.4hPa ENE 3.0mph /  4.8km/h 4.0mph /  6.4km/h 28% 0.00in /  0mm
15:39 94.7 °F /  34.8 °C 55.6 °F /  13.1 °C 29.84in /  1010.4hPa NNE 5.0mph /  8km/h 8.0mph /  12.9km/h 27% 0.00in /  0mm
15:44 94.9 °F /  34.9 °C 59.6 °F /  15.3 °C 29.84in /  1010.4hPa North 3.0mph /  4.8km/h 6.0mph /  9.7km/h 31% 0.00in /  0mm
15:49 95.1 °F /  35.1 °C 57.9 °F /  14.4 °C 29.84in /  1010.4hPa NE 4.0mph /  6.4km/h 5.0mph /  8km/h 29% 0.00in /  0mm
15:54 95.2 °F /  35.1 °C 58.0 °F /  14.4 °C 29.84in /  1010.4hPa North 4.0mph /  6.4km/h 8.0mph /  12.9km/h 29% 0.00in /  0mm
15:59 95.1 °F /  35.1 °C 53.8 °F /  12.1 °C 29.83in /  1010hPa NNE 1.0mph /  1.6km/h 6.0mph /  9.7km/h 25% 0.00in /  0mm
16:04 95.5 °F /  35.3 °C 60.1 °F /  15.6 °C 29.83in /  1010hPa North 5.0mph /  8km/h 5.0mph /  8km/h 31% 0.00in /  0mm
16:10 95.6 °F /  35.3 °C 55.3 °F /  12.9 °C 29.83in /  1010hPa NNW 6.0mph /  9.7km/h 9.0mph /  14.5km/h 26% 0.00in /  0mm
16:15 95.8 °F /  35.4 °C 55.5 °F /  13.1 °C 29.83in /  1010hPa NNE 4.0mph /  6.4km/h 6.0mph /  9.7km/h 26% 0.00in /  0mm
16:20 96.0 °F /  35.6 °C 56.7 °F /  13.7 °C 29.83in /  1010hPa NNW 6.0mph /  9.7km/h 7.0mph /  11.3km/h 27% 0.00in /  0mm
16:25 96.1 °F /  35.6 °C 57.8 °F /  14.3 °C 29.83in /  1010hPa NE 3.0mph /  4.8km/h 8.0mph /  12.9km/h 28% 0.00in /  0mm
16:30 96.2 °F /  35.7 °C 59.8 °F /  15.4 °C 29.82in /  1009.7hPa NE 2.0mph /  3.2km/h 6.0mph /  9.7km/h 30% 0.00in /  0mm
16:35 96.4 °F /  35.8 °C 54.9 °F /  12.7 °C 29.82in /  1009.7hPa NW 2.0mph /  3.2km/h 2.0mph /  3.2km/h 25% 0.00in /  0mm
16:40 96.7 °F /  35.9 °C 56.2 °F /  13.4 °C 29.82in /  1009.7hPa North 5.0mph /  8km/h 6.0mph /  9.7km/h 26% 0.00in /  0mm
16:45 96.5 °F /  35.8 °C 56.0 °F /  13.3 °C 29.82in /  1009.7hPa NNW 6.0mph /  9.7km/h 9.0mph /  14.5km/h 26% 0.00in /  0mm
16:50 96.4 °F /  35.8 °C 59.0 °F /  15 °C 29.82in /  1009.7hPa ENE 2.0mph /  3.2km/h 6.0mph /  9.7km/h 29% 0.00in /  0mm
16:55 96.2 °F /  35.7 °C 57.8 °F /  14.3 °C 29.81in /  1009.4hPa NNE 3.0mph /  4.8km/h 6.0mph /  9.7km/h 28% 0.00in /  0mm
17:00 96.3 °F /  35.7 °C 56.9 °F /  13.8 °C 29.81in /  1009.4hPa East 1.0mph /  1.6km/h 6.0mph /  9.7km/h 27% 0.00in /  0mm
17:05 96.4 °F /  35.8 °C 57.0 °F /  13.9 °C 29.80in /  1009hPa NE 5.0mph /  8km/h 5.0mph /  8km/h 27% 0.00in /  0mm
17:10 96.2 °F /  35.7 °C 57.8 °F /  14.3 °C 29.80in /  1009hPa NNE 5.0mph /  8km/h 6.0mph /  9.7km/h 28% 0.00in /  0mm
17:15 96.5 °F /  35.8 °C 59.1 °F /  15.1 °C 29.80in /  1009hPa ENE 2.0mph /  3.2km/h 4.0mph /  6.4km/h 29% 0.00in /  0mm
17:20 96.4 °F /  35.8 °C 56.0 °F /  13.3 °C 29.80in /  1009hPa NE 8.0mph /  12.9km/h 10.0mph /  16.1km/h 26% 0.00in /  0mm
17:25 96.2 °F /  35.7 °C 55.8 °F /  13.2 °C 29.80in /  1009hPa NE 5.0mph /  8km/h 8.0mph /  12.9km/h 26% 0.00in /  0mm
17:30 96.3 °F /  35.7 °C 57.9 °F /  14.4 °C 29.79in /  1008.7hPa NE 3.0mph /  4.8km/h 5.0mph /  8km/h 28% 0.00in /  0mm
17:35 96.3 °F /  35.7 °C 54.8 °F /  12.7 °C 29.79in /  1008.7hPa NE 5.0mph /  8km/h 5.0mph /  8km/h 25% 0.00in /  0mm
17:40 96.4 °F /  35.8 °C 57.0 °F /  13.9 °C 29.79in /  1008.7hPa North 5.0mph /  8km/h 6.0mph /  9.7km/h 27% 0.00in /  0mm
17:45 96.2 °F /  35.7 °C 56.8 °F /  13.8 °C 29.78in /  1008.4hPa NNE 3.0mph /  4.8km/h 8.0mph /  12.9km/h 27% 0.00in /  0mm
17:50 96.1 °F /  35.6 °C 57.8 °F /  14.3 °C 29.78in /  1008.4hPa NNW 5.0mph /  8km/h 8.0mph /  12.9km/h 28% 0.00in /  0mm
17:55 96.2 °F /  35.7 °C 59.8 °F /  15.4 °C 29.78in /  1008.4hPa NNW 3.0mph /  4.8km/h 8.0mph /  12.9km/h 30% 0.00in /  0mm
18:00 96.1 °F /  35.6 °C 57.8 °F /  14.3 °C 29.78in /  1008.4hPa NW 2.0mph /  3.2km/h 8.0mph /  12.9km/h 28% 0.00in /  0mm
18:05 96.2 °F /  35.7 °C 58.8 °F /  14.9 °C 29.78in /  1008.4hPa NNE 3.0mph /  4.8km/h 6.0mph /  9.7km/h 29% 0.00in /  0mm
18:10 96.3 °F /  35.7 °C 62.5 °F /  16.9 °C 29.78in /  1008.4hPa NE 2.0mph /  3.2km/h 6.0mph /  9.7km/h 33% 0.00in /  0mm
18:15 96.1 °F /  35.6 °C 57.8 °F /  14.3 °C 29.78in /  1008.4hPa North 7.0mph /  11.3km/h 8.0mph /  12.9km/h 28% 0.00in /  0mm
18:20 95.9 °F /  35.5 °C 58.6 °F /  14.8 °C 29.78in /  1008.4hPa NNE 4.0mph /  6.4km/h 9.0mph /  14.5km/h 29% 0.00in /  0mm
18:25 96.0 °F /  35.6 °C 57.7 °F /  14.3 °C 29.78in /  1008.4hPa North 7.0mph /  11.3km/h 8.0mph /  12.9km/h 28% 0.00in /  0mm
18:30 95.7 °F /  35.4 °C 58.4 °F /  14.7 °C 29.78in /  1008.4hPa NNW 6.0mph /  9.7km/h 8.0mph /  12.9km/h 29% 0.00in /  0mm
18:35 95.7 °F /  35.4 °C 59.3 °F /  15.2 °C 29.78in /  1008.4hPa NW 8.0mph /  12.9km/h 8.0mph /  12.9km/h 30% 0.00in /  0mm
18:40 95.5 °F /  35.3 °C 59.2 °F /  15.1 °C 29.79in /  1008.7hPa North 2.0mph /  3.2km/h 9.0mph /  14.5km/h 30% 0.00in /  0mm
18:45 95.5 °F /  35.3 °C 57.2 °F /  14 °C 29.78in /  1008.4hPa NE 2.0mph /  3.2km/h 9.0mph /  14.5km/h 28% 0.00in /  0mm
18:50 95.5 °F /  35.3 °C 60.1 °F /  15.6 °C 29.78in /  1008.4hPa NNW 4.0mph /  6.4km/h 4.0mph /  6.4km/h 31% 0.00in /  0mm
18:55 95.2 °F /  35.1 °C 58.0 °F /  14.4 °C 29.78in /  1008.4hPa North 4.0mph /  6.4km/h 11.0mph /  17.7km/h 29% 0.00in /  0mm
19:00 95.1 °F /  35.1 °C 57.9 °F /  14.4 °C 29.78in /  1008.4hPa NNW 6.0mph /  9.7km/h 9.0mph /  14.5km/h 29% 0.00in /  0mm
19:05 95.0 °F /  35 °C 58.7 °F /  14.8 °C 29.78in /  1008.4hPa NNW 2.0mph /  3.2km/h 6.0mph /  9.7km/h 30% 0.00in /  0mm
19:10 94.9 °F /  34.9 °C 59.6 °F /  15.3 °C 29.78in /  1008.4hPa North 5.0mph /  8km/h 6.0mph /  9.7km/h 31% 0.00in /  0mm
19:15 94.7 °F /  34.8 °C 59.4 °F /  15.2 °C 29.78in /  1008.4hPa NNW 2.0mph /  3.2km/h 7.0mph /  11.3km/h 31% 0.00in /  0mm
19:20 94.6 °F /  34.8 °C 61.1 °F /  16.2 °C 29.78in /  1008.4hPa North 4.0mph /  6.4km/h 5.0mph /  8km/h 33% 0.00in /  0mm
19:25 94.5 °F /  34.7 °C 59.2 °F /  15.1 °C 29.78in /  1008.4hPa North 5.0mph /  8km/h 6.0mph /  9.7km/h 31% 0.00in /  0mm
19:30 94.1 °F /  34.5 °C 58.9 °F /  14.9 °C 29.78in /  1008.4hPa North 3.0mph /  4.8km/h 6.0mph /  9.7km/h 31% 0.00in /  0mm
19:36 94.0 °F /  34.4 °C 59.7 °F /  15.4 °C 29.78in /  1008.4hPa NW 4.0mph /  6.4km/h 7.0mph /  11.3km/h 32% 0.00in /  0mm
19:41 93.7 °F /  34.3 °C 60.3 °F /  15.7 °C 29.78in /  1008.4hPa NNW 4.0mph /  6.4km/h 6.0mph /  9.7km/h 33% 0.00in /  0mm
19:46 93.4 °F /  34.1 °C 59.2 °F /  15.1 °C 29.78in /  1008.4hPa NNW 3.0mph /  4.8km/h 6.0mph /  9.7km/h 32% 0.00in /  0mm
19:51 93.2 °F /  34 °C 59.0 °F /  15 °C 29.78in /  1008.4hPa North 5.0mph /  8km/h 5.0mph /  8km/h 32% 0.00in /  0mm
19:56 93.0 °F /  33.9 °C 59.7 °F /  15.4 °C 29.78in /  1008.4hPa NNE 4.0mph /  6.4km/h 6.0mph /  9.7km/h 33% 0.00in /  0mm
20:01 92.7 °F /  33.7 °C 59.4 °F /  15.2 °C 29.78in /  1008.4hPa NNW 4.0mph /  6.4km/h 4.0mph /  6.4km/h 33% 0.00in /  0mm
20:06 92.4 °F /  33.6 °C 59.2 °F /  15.1 °C 29.78in /  1008.4hPa North 3.0mph /  4.8km/h 4.0mph /  6.4km/h 33% 0.00in /  0mm
20:11 92.0 °F /  33.3 °C 58.8 °F /  14.9 °C 29.78in /  1008.4hPa NNW 2.0mph /  3.2km/h 4.0mph /  6.4km/h 33% 0.00in /  0mm
20:16 91.8 °F /  33.2 °C 58.6 °F /  14.8 °C 29.78in /  1008.4hPa North 3.0mph /  4.8km/h 3.0mph /  4.8km/h 33% 0.00in /  0mm
20:21 91.6 °F /  33.1 °C 58.5 °F /  14.7 °C 29.78in /  1008.4hPa NNW 2.0mph /  3.2km/h 3.0mph /  4.8km/h 33% 0.00in /  0mm
20:26 91.3 °F /  32.9 °C 59.0 °F /  15 °C 29.78in /  1008.4hPa NNW 3.0mph /  4.8km/h 3.0mph /  4.8km/h 34% 0.00in /  0mm
20:31 90.6 °F /  32.6 °C 58.4 °F /  14.7 °C 29.78in /  1008.4hPa North 2.0mph /  3.2km/h 3.0mph /  4.8km/h 34% 0.00in /  0mm
20:36 90.2 °F /  32.3 °C 58.9 °F /  14.9 °C 29.78in /  1008.4hPa North 2.0mph /  3.2km/h 2.0mph /  3.2km/h 35% 0.00in /  0mm
20:41 89.8 °F /  32.1 °C 58.5 °F /  14.7 °C 29.78in /  1008.4hPa North 2.0mph /  3.2km/h 2.0mph /  3.2km/h 35% 0.00in /  0mm
20:46 89.1 °F /  31.7 °C 58.7 °F /  14.8 °C 29.78in /  1008.4hPa Calm   2.0mph /  3.2km/h 36% 0.00in /  0mm
20:51 88.6 °F /  31.4 °C 58.2 °F /  14.6 °C 29.78in /  1008.4hPa Calm   1.0mph /  1.6km/h 36% 0.00in /  0mm
20:56 88.0 °F /  31.1 °C 59.2 °F /  15.1 °C 29.78in /  1008.4hPa North 2.0mph /  3.2km/h 3.0mph /  4.8km/h 38% 0.00in /  0mm
21:01 87.1 °F /  30.6 °C 58.4 °F /  14.7 °C 29.78in /  1008.4hPa North 2.0mph /  3.2km/h 3.0mph /  4.8km/h 38% 0.00in /  0mm
21:06 86.5 °F /  30.3 °C 58.6 °F /  14.8 °C 29.78in /  1008.4hPa NNW 2.0mph /  3.2km/h 3.0mph /  4.8km/h 39% 0.00in /  0mm
21:11 85.7 °F /  29.8 °C 59.3 °F /  15.2 °C 29.78in /  1008.4hPa NNW 2.0mph /  3.2km/h 2.0mph /  3.2km/h 41% 0.00in /  0mm
21:16 85.0 °F /  29.4 °C 58.0 °F /  14.4 °C 29.78in /  1008.4hPa NNW 3.0mph /  4.8km/h 3.0mph /  4.8km/h 40% 0.00in /  0mm
21:21 84.5 °F /  29.2 °C 58.9 °F /  14.9 °C 29.78in /  1008.4hPa NNW 2.0mph /  3.2km/h 3.0mph /  4.8km/h 42% 0.00in /  0mm
21:26 84.0 °F /  28.9 °C 58.5 °F /  14.7 °C 29.79in /  1008.7hPa North 3.0mph /  4.8km/h 3.0mph /  4.8km/h 42% 0.00in /  0mm
21:31 83.9 °F /  28.8 °C 58.4 °F /  14.7 °C 29.79in /  1008.7hPa NNW 2.0mph /  3.2km/h 3.0mph /  4.8km/h 42% 0.00in /  0mm
21:36 83.8 °F /  28.8 °C 58.9 °F /  14.9 °C 29.79in /  1008.7hPa NNW 2.0mph /  3.2km/h 3.0mph /  4.8km/h 43% 0.00in /  0mm
21:41 83.7 °F /  28.7 °C 58.8 °F /  14.9 °C 29.79in /  1008.7hPa North 2.0mph /  3.2km/h 3.0mph /  4.8km/h 43% 0.00in /  0mm
21:46 83.5 °F /  28.6 °C 58.7 °F /  14.8 °C 29.79in /  1008.7hPa NNE 2.0mph /  3.2km/h 3.0mph /  4.8km/h 43% 0.00in /  0mm
21:51 83.3 °F /  28.5 °C 58.5 °F /  14.7 °C 29.79in /  1008.7hPa NNW 2.0mph /  3.2km/h 3.0mph /  4.8km/h 43% 0.00in /  0mm
21:56 83.0 °F /  28.3 °C 58.2 °F /  14.6 °C 29.79in /  1008.7hPa NNW 2.0mph /  3.2km/h 3.0mph /  4.8km/h 43% 0.00in /  0mm
22:01 83.0 °F /  28.3 °C 58.9 °F /  14.9 °C 29.79in /  1008.7hPa NNE 2.0mph /  3.2km/h 4.0mph /  6.4km/h 44% 0.00in /  0mm
22:06 82.9 °F /  28.3 °C 58.8 °F /  14.9 °C 29.79in /  1008.7hPa North 3.0mph /  4.8km/h 4.0mph /  6.4km/h 44% 0.00in /  0mm
22:11 82.6 °F /  28.1 °C 58.5 °F /  14.7 °C 29.79in /  1008.7hPa ENE 1.0mph /  1.6km/h 2.0mph /  3.2km/h 44% 0.00in /  0mm
22:16 82.6 °F /  28.1 °C 58.5 °F /  14.7 °C 29.79in /  1008.7hPa NNE 2.0mph /  3.2km/h 2.0mph /  3.2km/h 44% 0.00in /  0mm
22:21 82.7 °F /  28.2 °C 58.6 °F /  14.8 °C 29.79in /  1008.7hPa NNE 1.0mph /  1.6km/h 2.0mph /  3.2km/h 44% 0.00in /  0mm
22:26 82.6 °F /  28.1 °C 58.5 °F /  14.7 °C 29.79in /  1008.7hPa NNE 1.0mph /  1.6km/h 2.0mph /  3.2km/h 44% 0.00in /  0mm
22:31 82.3 °F /  27.9 °C 58.2 °F /  14.6 °C 29.80in /  1009hPa NNE 1.0mph /  1.6km/h 2.0mph /  3.2km/h 44% 0.00in /  0mm
22:36 82.1 °F /  27.8 °C 58.0 °F /  14.4 °C 29.80in /  1009hPa North 2.0mph /  3.2km/h 3.0mph /  4.8km/h 44% 0.00in /  0mm
22:41 81.9 °F /  27.7 °C 58.5 °F /  14.7 °C 29.80in /  1009hPa North 1.0mph /  1.6km/h 3.0mph /  4.8km/h 45% 0.00in /  0mm
22:46 81.7 °F /  27.6 °C 58.3 °F /  14.6 °C 29.80in /  1009hPa NNE 2.0mph /  3.2km/h 2.0mph /  3.2km/h 45% 0.00in /  0mm
22:51 81.6 °F /  27.6 °C 58.2 °F /  14.6 °C 29.80in /  1009hPa NNE 1.0mph /  1.6km/h 2.0mph /  3.2km/h 45% 0.00in /  0mm
22:56 81.4 °F /  27.4 °C 58.0 °F /  14.4 °C 29.80in /  1009hPa Calm   2.0mph /  3.2km/h 45% 0.00in /  0mm
23:01 81.2 °F /  27.3 °C 58.5 °F /  14.7 °C 29.80in /  1009hPa NNE 1.0mph /  1.6km/h 2.0mph /  3.2km/h 46% 0.00in /  0mm
23:06 81.0 °F /  27.2 °C 58.3 °F /  14.6 °C 29.80in /  1009hPa NNE 2.0mph /  3.2km/h 3.0mph /  4.8km/h 46% 0.00in /  0mm
23:11 80.9 °F /  27.2 °C 58.2 °F /  14.6 °C 29.80in /  1009hPa North 1.0mph /  1.6km/h 2.0mph /  3.2km/h 46% 0.00in /  0mm
23:17 80.7 °F /  27.1 °C 58.0 °F /  14.4 °C 29.80in /  1009hPa North 2.0mph /  3.2km/h 3.0mph /  4.8km/h 46% 0.00in /  0mm
23:22 80.5 °F /  26.9 °C 57.8 °F /  14.3 °C 29.80in /  1009hPa NNW 2.0mph /  3.2km/h 3.0mph /  4.8km/h 46% 0.00in /  0mm
23:27 80.4 °F /  26.9 °C 58.3 °F /  14.6 °C 29.80in /  1009hPa North 2.0mph /  3.2km/h 3.0mph /  4.8km/h 47% 0.00in /  0mm
23:32 80.2 °F /  26.8 °C 58.2 °F /  14.6 °C 29.80in /  1009hPa NNE 2.0mph /  3.2km/h 3.0mph /  4.8km/h 47% 0.00in /  0mm
23:37 80.1 °F /  26.7 °C 58.1 °F /  14.5 °C 29.80in /  1009hPa NNE 2.0mph /  3.2km/h 2.0mph /  3.2km/h 47% 0.00in /  0mm
23:42 79.9 °F /  26.6 °C 58.5 °F /  14.7 °C 29.80in /  1009hPa NNE 1.0mph /  1.6km/h 2.0mph /  3.2km/h 48% 0.00in /  0mm
23:47 79.6 °F /  26.4 °C 58.2 °F /  14.6 °C 29.80in /  1009hPa North 1.0mph /  1.6km/h 2.0mph /  3.2km/h 48% 0.00in /  0mm
23:52 79.3 °F /  26.3 °C 58.5 °F /  14.7 °C 29.80in /  1009hPa NNW 1.0mph /  1.6km/h 1.0mph /  1.6km/h 49% 0.00in /  0mm
23:57 79.1 °F /  26.2 °C 58.3 °F /  14.6 °C 29.80in /  1009hPa North 1.0mph /  1.6km/h 3.0mph /  4.8km/h 49% 0.00in /  0mm
Compliments of Weather Underground